Time;durP1;ratioP1;P1;durP2;ratioP2;P2;SDS_P1;SDS_P2;PMS_P1;PMS_P2;Temp;Humidity;BMP_temperature;BMP_pressure;BME280_temperature;BME280_humidity;BME280_pressure;Samples;Min_cycle;Max_cycle;Signal;HPM_P1;HPM_P2
2023/07/12 00:01:14;;;;;;;2.50;0.90;;;;;;;26.97;28.58;100461.41;5005694;28;20425;-64
2023/07/12 00:03:41;;;;;;;2.05;0.98;;;;;;;26.93;28.54;100455.47;5004040;28;20030;-64
2023/07/12 00:06:14;;;;;;;1.75;0.82;;;;;;;26.96;28.43;100445.66;5000635;28;20407;-63
2023/07/12 00:08:42;;;;;;;1.90;0.85;;;;;;;26.90;28.16;100450.34;5003667;28;20096;-63
2023/07/12 00:11:15;;;;;;;1.67;0.90;;;;;;;26.93;28.55;100454.59;5008713;28;20113;-64
2023/07/12 00:13:43;;;;;;;1.40;0.80;;;;;;;26.88;28.52;100457.28;5001114;28;20053;-64
2023/07/12 00:16:20;;;;;;;1.75;0.80;;;;;;;26.92;28.54;100450.09;5005934;28;20211;-64
2023/07/12 00:18:48;;;;;;;1.27;0.80;;;;;;;26.86;28.43;100443.53;5000374;28;20497;-64
2023/07/12 00:21:22;;;;;;;1.23;0.85;;;;;;;26.89;28.23;100457.03;5008158;28;20124;-64
2023/07/12 00:23:51;;;;;;;2.00;0.90;;;;;;;26.86;28.30;100459.53;5006442;28;20437;-65
2023/07/12 00:26:22;;;;;;;1.45;0.75;;;;;;;26.87;28.41;100455.63;5012782;28;20337;-65
2023/07/12 00:28:50;;;;;;;1.83;0.98;;;;;;;26.81;28.46;100462.22;5008316;28;20505;-64
2023/07/12 00:31:19;;;;;;;1.98;0.98;;;;;;;26.82;28.22;100470.41;5008426;28;20069;-64
2023/07/12 00:33:48;;;;;;;2.55;0.93;;;;;;;26.81;28.43;100465.03;5008000;28;20151;-64
2023/07/12 00:36:22;;;;;;;2.28;1.00;;;;;;;26.83;28.74;100463.69;5007466;28;20536;-65
2023/07/12 00:38:51;;;;;;;1.67;0.73;;;;;;;26.79;28.30;100464.44;5003964;28;20137;-64
2023/07/12 00:41:24;;;;;;;1.38;0.80;;;;;;;26.79;28.35;100464.44;5005272;28;20042;-64
2023/07/12 00:43:57;;;;;;;1.60;0.77;;;;;;;26.78;28.42;100468.34;5000826;28;20042;-64
2023/07/12 00:46:32;;;;;;;1.38;0.80;;;;;;;26.78;28.45;100469.22;5010280;28;20041;-64
2023/07/12 00:49:02;;;;;;;2.65;1.08;;;;;;;26.71;28.61;100466.53;4999960;28;20502;-64
2023/07/12 00:51:49;;;;;;;1.10;0.77;;;;;;;26.72;28.81;100473.00;5006609;28;20042;-65
2023/07/12 00:54:19;;;;;;;1.00;0.75;;;;;;;26.70;28.71;100464.00;5005165;28;20100;-64
2023/07/12 00:56:47;;;;;;;1.42;0.80;;;;;;;26.66;29.28;100455.22;5009254;28;20052;-65
2023/07/12 00:59:22;;;;;;;1.67;0.80;;;;;;;26.66;29.73;100460.81;5003222;28;20042;-64
2023/07/12 01:01:53;;;;;;;1.45;0.70;;;;;;;26.64;30.05;100445.31;5002552;28;20056;-64
2023/07/12 01:04:25;;;;;;;2.77;1.00;;;;;;;26.60;30.01;100442.16;5005531;28;20044;-64
2023/07/12 01:06:55;;;;;;;1.60;0.80;;;;;;;26.58;30.50;100454.72;5006681;28;20077;-64
2023/07/12 01:09:25;;;;;;;1.13;0.75;;;;;;;26.55;30.06;100472.91;5004860;28;20129;-64
2023/07/12 01:11:54;;;;;;;1.15;0.73;;;;;;;26.50;30.58;100472.81;5006428;28;20069;-64
2023/07/12 01:14:26;;;;;;;1.58;0.80;;;;;;;26.48;30.29;100491.00;4999340;28;20045;-64
2023/07/12 01:17:02;;;;;;;2.72;1.00;;;;;;;26.48;31.02;100483.44;4995522;28;20045;-64
2023/07/12 01:19:32;;;;;;;2.45;1.10;;;;;;;26.41;31.15;100465.88;4995970;28;20069;-63
2023/07/12 01:22:03;;;;;;;3.13;1.23;;;;;;;26.39;31.75;100440.03;5008337;28;20046;-64
2023/07/12 01:24:32;;;;;;;2.28;0.98;;;;;;;26.34;31.65;100443.59;5006883;28;20041;-64
2023/07/12 01:27:07;;;;;;;1.67;1.00;;;;;;;26.32;31.81;100467.38;5008195;28;20440;-63
2023/07/12 01:29:36;;;;;;;2.30;1.00;;;;;;;26.24;31.96;100479.81;5005047;28;20042;-65
2023/07/12 01:32:04;;;;;;;2.20;1.02;;;;;;;26.20;32.09;100487.06;4996788;28;20070;-63
2023/07/12 01:34:32;;;;;;;1.45;0.70;;;;;;;26.14;31.99;100487.16;5004634;28;20052;-62
2023/07/12 01:37:04;;;;;;;2.55;0.90;;;;;;;26.11;32.31;100476.44;5000192;28;20053;-63
2023/07/12 01:39:32;;;;;;;2.47;0.95;;;;;;;26.01;32.18;100480.69;5005616;28;20046;-62
2023/07/12 01:42:00;;;;;;;1.70;0.90;;;;;;;25.98;32.32;100485.94;5005413;28;20483;-62
2023/07/12 01:44:28;;;;;;;1.90;0.82;;;;;;;25.93;32.31;100503.50;4999613;28;20045;-62
2023/07/12 01:46:57;;;;;;;2.05;1.10;;;;;;;25.88;32.60;100508.16;5001572;28;20199;-62
2023/07/12 01:49:26;;;;;;;2.05;0.82;;;;;;;25.83;33.13;100508.00;5006308;28;20129;-62
2023/07/12 01:51:54;;;;;;;2.15;1.00;;;;;;;25.78;32.94;100513.50;5000929;28;20062;-61
2023/07/12 01:54:23;;;;;;;2.38;1.00;;;;;;;25.76;33.25;100519.34;5008014;28;20069;-60
2023/07/12 01:56:51;;;;;;;1.73;1.00;;;;;;;25.70;33.06;100514.72;5006782;28;20070;-62
2023/07/12 01:59:19;;;;;;;1.80;1.00;;;;;;;25.66;33.10;100513.47;5003799;28;20056;-62
2023/07/12 02:01:48;;;;;;;2.15;1.10;;;;;;;25.61;33.19;100519.81;5004292;28;20068;-62
2023/07/12 02:04:16;;;;;;;2.53;1.20;;;;;;;25.58;33.10;100539.06;5003944;28;20066;-62
2023/07/12 02:06:44;;;;;;;2.10;1.00;;;;;;;25.53;33.34;100548.19;5008619;28;20061;-62
2023/07/12 02:09:12;;;;;;;2.30;1.10;;;;;;;25.50;33.52;100536.56;5000445;28;20058;-62
2023/07/12 02:11:41;;;;;;;2.03;0.95;;;;;;;25.49;33.72;100526.47;4999953;28;20048;-62
2023/07/12 02:14:09;;;;;;;1.75;0.93;;;;;;;25.44;33.55;100515.97;5004227;28;20115;-62
2023/07/12 02:16:37;;;;;;;1.90;1.15;;;;;;;25.41;33.79;100522.06;5004909;28;20121;-62
2023/07/12 02:19:04;;;;;;;3.08;1.23;;;;;;;25.39;33.72;100526.22;5003398;28;20137;-62
2023/07/12 02:21:32;;;;;;;1.85;1.05;;;;;;;25.37;33.52;100531.19;5002763;28;20042;-61
2023/07/12 02:24:00;;;;;;;1.88;1.00;;;;;;;25.36;33.67;100540.69;5001155;28;20041;-62
2023/07/12 02:26:28;;;;;;;1.80;1.10;;;;;;;25.34;33.58;100557.72;5003135;28;20065;-60
2023/07/12 02:28:58;;;;;;;1.88;0.93;;;;;;;25.35;33.29;100561.38;5004382;28;20041;-62
2023/07/12 02:31:26;;;;;;;2.47;1.08;;;;;;;25.31;33.37;100551.78;4992164;28;20046;-61
2023/07/12 02:33:56;;;;;;;2.17;1.20;;;;;;;25.27;33.23;100563.44;5000052;28;20054;-62
2023/07/12 02:36:24;;;;;;;1.95;1.08;;;;;;;25.26;33.23;100584.13;5003537;28;20080;-62
2023/07/12 02:38:52;;;;;;;2.15;1.20;;;;;;;25.24;33.13;100574.25;5003526;28;20042;-62
2023/07/12 02:41:20;;;;;;;2.30;0.98;;;;;;;25.23;33.27;100594.94;5000395;28;20046;-62
2023/07/12 02:43:48;;;;;;;2.28;1.10;;;;;;;25.23;33.25;100589.34;4996774;28;20073;-62
2023/07/12 02:46:18;;;;;;;2.15;1.30;;;;;;;25.22;33.07;100570.88;4998720;28;20069;-62
2023/07/12 02:48:46;;;;;;;2.45;1.17;;;;;;;25.18;32.93;100575.22;5001505;28;20041;-62
2023/07/12 02:51:14;;;;;;;2.33;1.42;;;;;;;25.16;32.91;100574.59;4999029;28;20054;-61
2023/07/12 02:53:42;;;;;;;2.28;1.20;;;;;;;25.13;32.83;100577.88;5000656;28;20041;-62
2023/07/12 02:56:10;;;;;;;2.45;1.17;;;;;;;25.11;33.04;100594.91;5003134;28;20033;-61
2023/07/12 02:58:38;;;;;;;3.30;1.65;;;;;;;25.10;32.72;100624.00;5003857;28;20476;-61
2023/07/12 03:01:06;;;;;;;2.80;1.40;;;;;;;25.08;32.72;100650.53;4999176;28;20042;-61
2023/07/12 03:03:36;;;;;;;3.97;1.30;;;;;;;25.07;32.73;100655.28;5000156;28;20068;-61
2023/07/12 03:06:06;;;;;;;2.72;1.20;;;;;;;25.05;32.51;100620.22;5001062;28;20049;-61
2023/07/12 03:08:34;;;;;;;2.22;1.25;;;;;;;25.01;32.73;100638.56;5006034;28;20076;-60
2023/07/12 03:11:03;;;;;;;3.08;1.30;;;;;;;24.98;32.35;100625.06;4999976;28;20129;-61
2023/07/12 03:13:31;;;;;;;2.53;1.17;;;;;;;24.96;32.17;100636.47;4993667;28;20075;-60
2023/07/12 03:15:59;;;;;;;3.00;1.30;;;;;;;24.92;32.04;100631.53;5000597;28;20045;-62
2023/07/12 03:18:27;;;;;;;3.00;1.05;;;;;;;24.89;31.97;100616.94;4998918;28;20592;-61
2023/07/12 03:21:00;;;;;;;2.20;1.20;;;;;;;24.89;31.89;100636.53;4998015;28;20046;-61
2023/07/12 03:23:29;;;;;;;2.58;1.30;;;;;;;24.82;31.72;100637.69;5002368;28;20620;-61
2023/07/12 03:25:57;;;;;;;2.53;1.20;;;;;;;24.80;31.51;100646.34;5002891;28;20152;-61
2023/07/12 03:28:26;;;;;;;2.38;1.10;;;;;;;24.78;31.31;100651.31;4998003;28;20517;-62
2023/07/12 03:30:58;;;;;;;2.60;1.10;;;;;;;24.78;31.45;100639.25;4998249;28;20133;-61
2023/07/12 03:33:27;;;;;;;3.05;1.10;;;;;;;24.71;31.52;100614.16;4994857;28;20129;-61
2023/07/12 03:35:55;;;;;;;1.95;0.90;;;;;;;24.69;31.57;100616.31;5007083;28;20546;-61
2023/07/12 03:38:25;;;;;;;3.67;1.25;;;;;;;24.70;31.62;100611.56;5004677;28;20066;-61
2023/07/12 03:40:55;;;;;;;2.85;1.30;;;;;;;24.66;31.50;100611.19;5005710;28;20045;-61
2023/07/12 03:43:23;;;;;;;1.77;0.93;;;;;;;24.61;31.40;100608.22;5000487;28;20792;-61
2023/07/12 03:45:51;;;;;;;3.30;1.27;;;;;;;24.60;31.47;100608.47;5008299;28;20065;-61
2023/07/12 03:48:19;;;;;;;1.45;0.90;;;;;;;24.57;31.61;100600.56;5004883;28;20472;-61
2023/07/12 03:50:49;;;;;;;1.52;0.70;;;;;;;24.54;31.47;100601.88;5005584;28;20053;-61
2023/07/12 03:53:17;;;;;;;2.08;0.90;;;;;;;24.49;31.75;100598.88;5008744;28;20046;-61
2023/07/12 03:55:47;;;;;;;1.73;0.90;;;;;;;24.48;31.21;100598.03;5009399;28;20445;-61
2023/07/12 03:58:19;;;;;;;1.92;0.85;;;;;;;24.44;31.52;100596.81;5011555;28;20069;-61
2023/07/12 04:00:48;;;;;;;2.20;0.90;;;;;;;24.38;31.31;100588.50;5012416;28;20060;-61
2023/07/12 04:03:17;;;;;;;1.45;0.75;;;;;;;24.36;31.30;100613.88;5006994;28;20050;-61
2023/07/12 04:05:49;;;;;;;1.73;0.88;;;;;;;24.33;31.40;100607.84;5005370;28;20042;-61
2023/07/12 04:08:17;;;;;;;1.55;0.82;;;;;;;24.27;31.28;100595.66;5006652;28;20053;-61
2023/07/12 04:10:45;;;;;;;2.33;1.10;;;;;;;24.24;31.52;100593.31;5007147;28;20048;-63
2023/07/12 04:13:14;;;;;;;1.65;0.70;;;;;;;24.22;31.62;100589.91;5010673;28;20050;-60
2023/07/12 04:15:43;;;;;;;1.88;1.00;;;;;;;24.17;31.62;100586.94;5004411;28;20134;-60
2023/07/12 04:18:11;;;;;;;1.63;0.73;;;;;;;24.11;31.69;100605.50;5001314;28;20671;-61
2023/07/12 04:20:40;;;;;;;2.25;1.00;;;;;;;24.08;31.77;100607.88;4992608;28;20576;-60
2023/07/12 04:23:08;;;;;;;1.10;0.90;;;;;;;24.04;31.53;100606.66;4999007;28;20056;-61
2023/07/12 04:25:36;;;;;;;2.17;0.80;;;;;;;24.00;31.66;100592.25;4999246;28;20037;-61
2023/07/12 04:28:05;;;;;;;1.67;0.80;;;;;;;23.95;31.66;100600.50;5002901;28;20529;-61
2023/07/12 04:30:34;;;;;;;1.23;0.70;;;;;;;23.93;31.67;100602.66;5005264;28;20077;-60
2023/07/12 04:33:02;;;;;;;1.45;0.75;;;;;;;23.87;31.60;100609.16;5011442;28;20072;-60
2023/07/12 04:35:30;;;;;;;2.42;0.80;;;;;;;23.83;31.71;100610.69;5008343;28;20068;-60
2023/07/12 04:37:58;;;;;;;1.73;0.90;;;;;;;23.79;31.83;100612.25;4999127;28;20046;-61
2023/07/12 04:40:26;;;;;;;2.38;0.90;;;;;;;23.76;31.80;100612.69;5009007;28;20048;-61
2023/07/12 04:42:54;;;;;;;1.40;0.70;;;;;;;23.72;31.75;100617.88;4995082;28;20057;-60
2023/07/12 04:45:22;;;;;;;1.58;0.80;;;;;;;23.68;31.75;100613.78;5000935;28;20038;-61
2023/07/12 04:47:51;;;;;;;2.45;0.80;;;;;;;23.67;31.78;100619.59;4998333;28;20278;-61
2023/07/12 04:50:19;;;;;;;2.22;0.90;;;;;;;23.62;31.68;100619.44;5000767;28;20192;-62
2023/07/12 04:52:47;;;;;;;1.88;0.80;;;;;;;23.58;31.98;100629.38;5001317;28;20516;-62
2023/07/12 04:55:23;;;;;;;1.50;0.82;;;;;;;23.58;31.90;100641.38;4997941;28;20510;-62
2023/07/12 04:57:51;;;;;;;1.52;0.90;;;;;;;23.51;32.00;100643.34;4997865;28;20053;-60
2023/07/12 05:00:19;;;;;;;2.83;1.00;;;;;;;23.49;32.36;100639.09;4997868;28;20563;-72
2023/07/12 05:02:47;;;;;;;1.77;0.90;;;;;;;23.47;32.21;100641.25;4992000;28;20489;-61
2023/07/12 05:05:17;;;;;;;2.22;1.02;;;;;;;23.46;32.25;100643.19;4998706;28;20045;-62
2023/07/12 05:07:45;;;;;;;1.70;0.88;;;;;;;23.43;32.26;100653.94;4991821;28;20557;-59
2023/07/12 05:10:14;;;;;;;2.33;0.80;;;;;;;23.40;32.35;100649.69;5003602;28;20041;-69
2023/07/12 05:12:42;;;;;;;2.17;0.80;;;;;;;23.39;32.15;100650.75;4999833;28;20441;-59
2023/07/12 05:15:11;;;;;;;1.77;1.00;;;;;;;23.37;32.50;100647.31;5001110;28;20034;-62
2023/07/12 05:17:40;;;;;;;2.35;0.90;;;;;;;23.35;32.42;100652.25;5003787;28;20065;-61
2023/07/12 05:20:12;;;;;;;1.85;0.90;;;;;;;23.34;32.52;100651.41;5007730;28;20041;-64
2023/07/12 05:22:42;;;;;;;1.55;0.80;;;;;;;23.31;32.35;100664.97;5008372;28;20149;-61
2023/07/12 05:25:10;;;;;;;1.88;0.90;;;;;;;23.31;32.48;100667.78;5006503;28;20045;-63
2023/07/12 05:27:39;;;;;;;2.25;0.98;;;;;;;23.30;32.85;100669.69;5006195;28;20470;-60
2023/07/12 05:30:08;;;;;;;2.55;0.93;;;;;;;23.31;32.70;100674.22;5004472;28;20052;-61
2023/07/12 05:32:36;;;;;;;1.98;0.90;;;;;;;23.30;32.76;100678.09;5007862;28;20409;-62
2023/07/12 05:35:05;;;;;;;1.25;0.70;;;;;;;23.32;32.61;100689.03;5005874;28;20036;-62
2023/07/12 05:37:33;;;;;;;2.55;1.00;;;;;;;23.31;32.65;100687.31;5010857;28;20041;-64
2023/07/12 05:40:05;;;;;;;1.40;0.70;;;;;;;23.34;32.58;100698.03;5004362;28;20042;-63
2023/07/12 05:42:33;;;;;;;1.57;0.80;;;;;;;23.29;32.56;100695.91;5004707;28;20045;-64
2023/07/12 05:45:01;;;;;;;1.98;0.93;;;;;;;23.30;32.80;100703.22;5005318;28;20489;-65
2023/07/12 05:47:29;;;;;;;1.65;0.98;;;;;;;23.29;32.50;100709.88;5006719;28;20455;-71
2023/07/12 05:49:57;;;;;;;1.73;0.82;;;;;;;23.27;32.29;100716.75;5006490;28;20410;-68
2023/07/12 05:52:25;;;;;;;1.92;0.95;;;;;;;23.24;32.46;100718.06;5007825;28;20042;-66
2023/07/12 05:54:53;;;;;;;1.20;0.80;;;;;;;23.21;32.54;100724.09;5007101;28;20056;-65
2023/07/12 05:57:22;;;;;;;1.70;0.80;;;;;;;23.19;32.37;100731.81;5006665;28;20045;-66
2023/07/12 05:59:51;;;;;;;1.95;1.00;;;;;;;23.13;32.80;100731.81;5002848;28;20133;-64
2023/07/12 06:02:19;;;;;;;1.60;0.85;;;;;;;23.09;32.50;100753.72;5005487;28;20069;-67
2023/07/12 06:04:47;;;;;;;2.25;1.10;;;;;;;23.05;32.59;100746.00;5006531;28;20041;-62
2023/07/12 06:07:15;;;;;;;2.05;1.10;;;;;;;23.01;32.63;100742.78;5003220;28;20057;-62
2023/07/12 06:09:43;;;;;;;1.63;1.02;;;;;;;22.96;32.83;100735.09;4998130;28;20038;-63
2023/07/12 06:12:11;;;;;;;2.55;1.00;;;;;;;22.92;33.04;100733.78;4996870;28;20426;-62
2023/07/12 06:14:40;;;;;;;2.25;1.17;;;;;;;22.90;33.18;100738.75;5000524;28;20129;-68
2023/07/12 06:17:08;;;;;;;2.67;0.82;;;;;;;22.87;33.23;100738.31;5000298;28;20140;-69
2023/07/12 06:19:36;;;;;;;4.05;1.00;;;;;;;22.86;33.60;100737.47;4992875;28;20165;-68
2023/07/12 06:22:05;;;;;;;1.90;0.90;;;;;;;22.90;33.53;100743.47;4999953;28;20480;-65
2023/07/12 06:24:32;;;;;;;2.13;0.90;;;;;;;22.94;33.47;100739.16;5002666;28;20049;-67
2023/07/12 06:27:00;;;;;;;2.08;1.05;;;;;;;22.99;33.46;100743.03;4998911;28;20041;-67
2023/07/12 06:29:29;;;;;;;3.40;1.35;;;;;;;23.07;33.44;100743.88;4999858;28;20568;-63
2023/07/12 06:31:58;;;;;;;2.22;0.90;;;;;;;23.13;33.33;100746.63;4999013;28;20070;-63
2023/07/12 06:34:26;;;;;;;2.90;1.10;;;;;;;23.16;33.29;100739.78;5003855;28;20095;-63
2023/07/12 06:36:54;;;;;;;2.05;0.90;;;;;;;23.20;33.36;100746.63;4996425;28;20066;-62
2023/07/12 06:39:22;;;;;;;2.35;0.95;;;;;;;23.22;33.38;100742.56;5000201;28;20113;-62
2023/07/12 06:41:51;;;;;;;1.80;1.00;;;;;;;23.28;33.33;100738.00;4996735;28;20061;-65
2023/07/12 06:44:19;;;;;;;3.20;1.00;;;;;;;23.31;33.38;100745.97;4999734;28;20344;-62
2023/07/12 06:46:47;;;;;;;2.13;0.95;;;;;;;23.35;33.07;100747.22;4995616;28;20056;-65
2023/07/12 06:49:17;;;;;;;2.05;0.90;;;;;;;23.41;33.23;100757.53;4989255;28;20046;-66
2023/07/12 06:51:46;;;;;;;3.15;1.00;;;;;;;23.44;33.39;100739.44;4999745;28;20476;-62
2023/07/12 06:54:14;;;;;;;1.85;1.10;;;;;;;23.49;33.22;100759.22;4997200;28;20466;-62
2023/07/12 06:56:43;;;;;;;2.28;1.00;;;;;;;23.55;33.24;100752.72;5003765;28;20046;-62
2023/07/12 06:59:11;;;;;;;2.20;1.13;;;;;;;23.62;32.98;100759.97;4994402;28;20144;-62
2023/07/12 07:01:39;;;;;;;1.42;0.90;;;;;;;23.68;32.58;100753.50;4995584;28;20053;-62
2023/07/12 07:04:07;;;;;;;2.22;0.98;;;;;;;23.73;32.42;100755.63;4999466;28;20086;-62
2023/07/12 07:06:36;;;;;;;2.85;1.13;;;;;;;23.79;32.25;100754.78;5002190;28;20084;-62
2023/07/12 07:09:05;;;;;;;2.63;1.00;;;;;;;23.81;32.11;100762.94;4994963;28;20057;-62
2023/07/12 07:11:33;;;;;;;3.63;0.98;;;;;;;23.83;32.05;100760.75;4999362;28;20571;-66
2023/07/12 07:14:00;;;;;;;2.47;1.00;;;;;;;23.85;31.67;100758.59;4997723;28;20136;-62
2023/07/12 07:16:29;;;;;;;3.35;1.10;;;;;;;23.85;31.49;100761.38;5000252;28;20724;-62
2023/07/12 07:18:58;;;;;;;1.92;0.93;;;;;;;23.85;31.54;100767.84;4996909;28;20105;-62
2023/07/12 07:21:26;;;;;;;2.80;1.05;;;;;;;23.87;31.69;100762.88;5010154;23;20044;-76
2023/07/12 07:23:55;;;;;;;2.75;1.30;;;;;;;23.92;31.70;100760.25;5020468;28;20120;-77
2023/07/12 07:26:23;;;;;;;3.25;1.05;;;;;;;23.94;31.62;100763.69;5024476;28;20037;-77
2023/07/12 07:28:51;;;;;;;1.85;1.00;;;;;;;23.96;31.51;100766.28;5020613;28;20573;-76
2023/07/12 07:31:19;;;;;;;1.40;0.88;;;;;;;23.98;31.56;100781.75;5019654;28;20064;-76
2023/07/12 07:34:02;;;;;;;3.78;1.20;;;;;;;24.01;31.44;100775.69;5029253;28;20073;-82
2023/07/12 07:36:38;;;;;;;2.33;1.00;;;;;;;24.02;31.52;100777.41;5030583;28;20037;-83
2023/07/12 07:39:12;;;;;;;3.40;1.10;;;;;;;24.09;31.33;100778.22;5033766;28;20125;-82
2023/07/12 07:41:41;;;;;;;2.03;1.10;;;;;;;24.09;31.39;100774.56;5031985;28;20045;-82
2023/07/12 07:44:10;;;;;;;1.80;1.02;;;;;;;24.13;30.72;100787.88;5033275;28;20044;-83
2023/07/12 07:46:38;;;;;;;2.65;1.20;;;;;;;24.16;30.69;100786.56;5042211;28;20045;-84
2023/07/12 07:49:15;;;;;;;1.35;0.82;;;;;;;24.18;30.70;100778.81;5028103;28;20056;-83
2023/07/12 07:51:43;;;;;;;1.85;1.00;;;;;;;24.22;30.74;100782.00;5030160;28;20069;-84
2023/07/12 07:54:16;;;;;;;2.33;1.10;;;;;;;24.27;30.22;100780.25;5034701;28;20083;-84
2023/07/12 07:56:44;;;;;;;1.85;0.98;;;;;;;24.30;30.24;100776.16;5035471;28;20041;-83
2023/07/12 07:59:14;;;;;;;2.67;1.25;;;;;;;24.36;30.11;100775.25;5040537;28;20080;-83
2023/07/12 08:01:45;;;;;;;2.22;1.02;;;;;;;24.39;29.99;100784.06;5043601;28;20100;-83
2023/07/12 08:04:13;;;;;;;2.13;1.33;;;;;;;24.46;29.93;100786.81;5040053;28;20046;-83
2023/07/12 08:06:41;;;;;;;2.58;1.15;;;;;;;24.54;29.83;100777.28;5043356;28;20042;-84
2023/07/12 08:09:12;;;;;;;2.28;1.25;;;;;;;24.60;29.66;100768.81;5042365;28;20040;-85
2023/07/12 08:11:43;;;;;;;3.00;1.30;;;;;;;24.68;29.21;100762.94;5044055;28;20475;-84
2023/07/12 08:14:14;;;;;;;1.38;0.90;;;;;;;24.73;29.31;100765.88;5048397;28;20109;-84
2023/07/12 08:16:42;;;;;;;2.53;1.00;;;;;;;24.77;29.34;100764.34;5046155;28;20041;-85
2023/07/12 08:19:10;;;;;;;2.08;0.90;;;;;;;24.86;29.20;100767.72;5039674;28;20284;-84
2023/07/12 08:21:56;;;;;;;;;;;;;;;;;;;;;
2023/07/12 08:24:27;;;;;;;2.40;1.10;;;;;;;24.96;29.04;100776.47;5041283;28;20041;-85
2023/07/12 08:27:04;;;;;;;3.60;1.02;;;;;;;25.10;28.33;100778.03;5037792;28;20528;-83
2023/07/12 08:29:36;;;;;;;2.28;1.10;;;;;;;25.12;28.68;100780.59;5036609;28;20049;-82
2023/07/12 08:32:05;;;;;;;2.55;1.05;;;;;;;25.19;28.85;100785.03;5040446;28;20057;-84
2023/07/12 08:34:34;;;;;;;3.10;1.10;;;;;;;25.24;28.57;100778.72;5039592;28;20056;-83
2023/07/12 08:37:06;;;;;;;2.72;1.00;;;;;;;25.29;28.27;100776.09;5043682;28;20052;-83
2023/07/12 08:39:35;;;;;;;2.90;1.05;;;;;;;25.30;28.15;100780.63;5041892;28;20068;-83
2023/07/12 08:42:14;;;;;;;1.63;1.00;;;;;;;25.40;27.66;100785.66;5034895;28;20038;-83
2023/07/12 08:44:43;;;;;;;1.95;1.00;;;;;;;25.41;28.07;100779.81;5042244;28;20152;-84
2023/07/12 08:54:50;;;;;;;2.47;1.30;;;;;;;25.55;28.37;100787.00;4961303;28;20070;-84
2023/07/12 09:00:43;;;;;;;1.88;0.90;;;;;;;25.66;28.07;100796.56;4966523;28;20055;-84
2023/07/12 09:03:16;;;;;;;2.20;1.00;;;;;;;25.69;27.69;100800.84;5056466;28;20064;-84
2023/07/12 09:05:47;;;;;;;2.13;1.00;;;;;;;25.72;27.56;100803.19;5039205;28;20034;-84
2023/07/12 09:08:21;;;;;;;1.85;1.15;;;;;;;25.77;27.26;100812.59;5023142;28;20285;-83
2023/07/12 09:10:51;;;;;;;3.47;1.10;;;;;;;25.73;27.49;100793.66;5025783;28;20517;-84
2023/07/12 09:13:22;;;;;;;2.00;1.00;;;;;;;25.75;27.06;100813.91;5029332;28;20050;-84
2023/07/12 09:15:52;;;;;;;1.60;0.90;;;;;;;25.73;26.93;100810.47;5022245;28;20070;-84
2023/07/12 09:18:30;;;;;;;1.35;0.77;;;;;;;25.72;26.72;100811.59;5041829;28;20056;-84
2023/07/12 09:21:00;;;;;;;1.88;0.90;;;;;;;25.63;26.86;100813.88;5044211;28;20045;-84
2023/07/12 09:23:37;;;;;;;2.70;1.10;;;;;;;25.61;26.95;100813.25;5038535;28;20045;-83
2023/07/12 09:26:12;;;;;;;2.17;0.98;;;;;;;25.57;26.82;100812.84;5010931;28;20497;-83
2023/07/12 09:28:44;;;;;;;3.33;0.95;;;;;;;25.50;26.88;100811.19;5035501;28;20073;-83
2023/07/12 09:31:15;;;;;;;2.03;1.10;;;;;;;25.44;26.79;100818.59;5030715;28;20045;-84
2023/07/12 09:33:49;;;;;;;2.33;0.90;;;;;;;25.41;26.76;100812.56;5042449;28;20076;-85
2023/07/12 09:36:27;;;;;;;2.38;1.27;;;;;;;25.35;26.99;100813.50;5047235;28;20072;-84
2023/07/12 09:39:01;;;;;;;2.90;1.20;;;;;;;25.35;26.65;100819.13;5030851;28;20160;-84
2023/07/12 09:41:29;;;;;;;1.83;0.93;;;;;;;25.30;27.02;100827.38;5022354;28;20354;-85
2023/07/12 09:44:03;;;;;;;2.42;0.90;;;;;;;25.29;26.97;100826.53;5032683;28;20049;-84
2023/07/12 09:46:38;;;;;;;2.08;1.00;;;;;;;25.28;26.71;100830.41;5016150;28;20042;-84
2023/07/12 09:49:13;;;;;;;2.08;0.98;;;;;;;25.26;26.84;100830.63;5036386;28;20402;-84
2023/07/12 09:51:52;;;;;;;2.38;0.80;;;;;;;25.25;26.86;100823.31;5021804;28;20069;-82
2023/07/12 09:54:32;;;;;;;2.70;0.80;;;;;;;25.28;26.61;100819.19;5025972;28;20118;-83
2023/07/12 09:57:06;;;;;;;2.67;1.00;;;;;;;25.29;26.63;100828.47;5046230;28;20041;-84
2023/07/12 09:59:58;;;;;;;2.10;1.10;;;;;;;25.32;26.52;100827.97;5031621;28;20057;-82
2023/07/12 10:02:40;;;;;;;2.40;0.93;;;;;;;25.32;26.67;100840.03;5038471;28;20524;-83
2023/07/12 10:05:13;;;;;;;2.35;0.93;;;;;;;25.37;26.47;100830.97;5042621;28;20080;-83
2023/07/12 10:07:53;;;;;;;1.73;1.05;;;;;;;25.38;26.39;100825.13;5048600;28;20065;-84
2023/07/12 10:10:29;;;;;;;2.95;0.90;;;;;;;25.41;26.18;100835.00;5027953;28;20132;-84
2023/07/12 10:13:17;;;;;;;1.40;0.85;;;;;;;25.42;26.13;100837.56;5049061;28;20045;-83
2023/07/12 10:15:49;;;;;;;1.33;0.98;;;;;;;25.40;26.29;100831.31;5037393;28;20061;-82
2023/07/12 10:18:19;;;;;;;3.78;1.10;;;;;;;25.41;26.18;100830.25;5019455;28;20042;-83
2023/07/12 10:20:49;;;;;;;2.03;0.98;;;;;;;25.40;26.18;100836.94;5048228;28;20041;-85
2023/07/12 10:23:24;;;;;;;1.40;0.77;;;;;;;25.41;26.47;100835.84;5033482;28;20045;-84
2023/07/12 10:25:59;;;;;;;2.05;1.00;;;;;;;25.43;26.32;100832.81;5031427;28;20265;-84
2023/07/12 10:28:34;;;;;;;2.95;0.85;;;;;;;25.45;26.59;100830.66;5024938;28;20054;-83
2023/07/12 10:31:10;;;;;;;2.15;1.02;;;;;;;25.47;26.17;100836.88;5012699;28;20050;-84
2023/07/12 10:33:44;;;;;;;2.05;0.90;;;;;;;25.49;26.21;100837.47;5009960;28;20132;-81
2023/07/12 10:36:17;;;;;;;1.70;0.90;;;;;;;25.52;26.20;100840.72;5012680;28;20113;-82
2023/07/12 10:38:52;;;;;;;2.30;0.98;;;;;;;25.56;25.76;100844.75;5013264;28;20568;-84
2023/07/12 10:41:27;;;;;;;1.42;0.80;;;;;;;25.57;25.58;100840.00;5024739;28;20038;-81
2023/07/12 10:44:07;;;;;;;2.75;1.00;;;;;;;25.60;25.75;100845.16;5043983;28;20034;-80
2023/07/12 10:46:42;;;;;;;2.08;0.82;;;;;;;25.62;26.26;100845.78;5055238;28;20105;-84
2023/07/12 10:49:15;;;;;;;1.52;0.73;;;;;;;25.62;25.92;100843.84;5019916;28;20122;-82
2023/07/12 10:51:45;;;;;;;2.72;1.00;;;;;;;25.62;26.10;100834.56;5032955;28;20049;-82
2023/07/12 10:54:51;;;;;;;1.98;0.95;;;;;;;25.61;26.08;100842.13;5009666;28;20055;-80
2023/07/12 10:57:28;;;;;;;3.45;0.85;;;;;;;25.73;25.99;100844.13;5045130;28;20059;-84
2023/07/12 11:00:01;;;;;;;1.45;0.90;;;;;;;25.78;26.38;100833.06;5060348;28;20069;-83
2023/07/12 11:02:43;;;;;;;1.85;0.90;;;;;;;25.84;26.01;100832.13;5054033;28;20045;-83
2023/07/12 11:05:43;;;;;;;2.15;0.80;;;;;;;25.88;25.93;100830.56;5049620;28;20072;-82
2023/07/12 11:08:39;;;;;;;2.47;0.90;;;;;;;25.97;25.90;100829.97;5042456;28;20357;-83
2023/07/12 11:11:33;;;;;;;1.65;0.80;;;;;;;26.04;25.94;100835.53;5027940;28;20113;-83
2023/07/12 11:14:24;;;;;;;2.63;0.80;;;;;;;26.16;25.68;100818.75;5030224;28;20050;-82
2023/07/12 11:17:12;;;;;;;2.35;0.90;;;;;;;26.25;25.75;100821.00;5040398;28;20071;-83
2023/07/12 11:20:06;;;;;;;1.60;0.75;;;;;;;26.32;25.08;100823.69;5049378;28;20033;-82
2023/07/12 11:22:56;;;;;;;1.60;0.80;;;;;;;26.39;25.05;100830.91;5009758;28;20042;-82
2023/07/12 11:25:32;;;;;;;2.95;1.15;;;;;;;26.49;24.65;100835.94;5039144;28;20045;-82
2023/07/12 11:28:03;;;;;;;2.15;0.90;;;;;;;26.55;24.88;100832.16;5043326;28;20045;-83
2023/07/12 11:30:43;;;;;;;2.40;1.08;;;;;;;26.63;24.50;100845.03;5036097;28;20087;-83
2023/07/12 11:33:22;;;;;;;1.38;0.75;;;;;;;26.64;24.17;100835.50;5041577;28;20056;-85
2023/07/12 11:35:55;;;;;;;2.95;0.80;;;;;;;26.66;24.10;100836.13;5033870;28;20075;-84
2023/07/12 11:38:29;;;;;;;1.63;0.82;;;;;;;26.64;24.27;100835.50;5050991;28;20049;-83
2023/07/12 11:41:03;;;;;;;2.03;0.70;;;;;;;26.64;23.85;100839.16;5035136;28;20575;-85
2023/07/12 11:43:37;;;;;;;2.47;0.90;;;;;;;26.63;23.48;100842.22;5034989;28;20050;-85
2023/07/12 11:46:15;;;;;;;3.78;1.30;;;;;;;26.61;23.46;100835.97;5030030;28;20045;-83
2023/07/12 11:48:50;;;;;;;2.65;0.90;;;;;;;26.56;23.97;100825.44;5035492;28;20037;-84
2023/07/12 11:51:35;;;;;;;1.42;0.57;;;;;;;26.55;23.56;100828.50;5034393;28;20041;-83
2023/07/12 11:54:16;;;;;;;1.25;0.63;;;;;;;26.56;23.91;100825.44;5029034;28;20038;-82
2023/07/12 11:56:50;;;;;;;2.13;0.80;;;;;;;26.56;23.93;100828.25;5021334;28;20529;-82